createdAt,value
2022-07-26T00:01:45.761Z,62.99
2022-07-26T00:04:12.533Z,63.31
2022-07-26T00:06:39.395Z,63.18
2022-07-26T00:09:11.149Z,63.38
2022-07-26T00:11:38.172Z,63.29
2022-07-26T00:14:06.817Z,63.31
2022-07-26T00:16:36.236Z,63.59
2022-07-26T00:19:04.645Z,63.72
2022-07-26T00:21:31.791Z,63.91
2022-07-26T00:24:00.584Z,63.79
2022-07-26T00:26:27.113Z,63.89
2022-07-26T00:28:53.667Z,64.15
2022-07-26T00:31:20.413Z,64.11
2022-07-26T00:33:49.262Z,64.24
2022-07-26T00:36:15.942Z,64.39
2022-07-26T00:38:42.649Z,64.26
2022-07-26T00:41:09.415Z,64.53
2022-07-26T00:43:38.282Z,64.59
2022-07-26T00:46:05.063Z,64.79
2022-07-26T00:48:33.961Z,64.69
2022-07-26T00:51:00.672Z,64.78
2022-07-26T00:53:27.337Z,65.36
2022-07-26T00:55:53.964Z,65.28
2022-07-26T00:58:20.549Z,65.40
2022-07-26T01:00:47.308Z,65.52
2022-07-26T01:03:13.953Z,65.65
2022-07-26T01:05:43.010Z,65.86
2022-07-26T01:08:09.722Z,66.17
2022-07-26T01:10:40.031Z,66.13
2022-07-26T01:13:06.693Z,66.26
2022-07-26T01:15:35.659Z,66.19
2022-07-26T01:18:02.229Z,66.48
2022-07-26T01:20:28.890Z,66.49
2022-07-26T01:22:55.482Z,66.51
2022-07-26T01:25:33.090Z,66.63
2022-07-26T01:28:19.759Z,66.85
2022-07-26T01:30:47.876Z,67.32
2022-07-26T01:33:14.498Z,67.48
2022-07-26T01:35:41.085Z,67.79
2022-07-26T01:38:10.061Z,67.79
2022-07-26T01:40:36.663Z,67.79
2022-07-26T01:43:03.640Z,68.03
2022-07-26T01:45:30.407Z,68.35
2022-07-26T01:47:57.042Z,68.45
2022-07-26T01:50:23.634Z,68.59
2022-07-26T01:52:50.193Z,68.63
2022-07-26T01:55:16.864Z,68.62
2022-07-26T01:57:45.831Z,68.80
2022-07-26T02:00:12.996Z,68.94
2022-07-26T02:02:39.664Z,68.90
2022-07-26T02:05:09.109Z,69.12
2022-07-26T02:07:44.578Z,69.03
2022-07-26T02:10:12.879Z,69.26
2022-07-26T02:12:41.058Z,69.31
2022-07-26T02:15:08.939Z,69.34
2022-07-26T02:17:35.622Z,69.81
2022-07-26T02:20:02.323Z,69.74
2022-07-26T02:22:31.215Z,69.81
2022-07-26T02:25:02.980Z,69.98
2022-07-26T02:27:31.464Z,70.30
2022-07-26T02:30:00.574Z,70.30
2022-07-26T02:32:27.121Z,70.50
2022-07-26T02:34:55.942Z,70.38
2022-07-26T02:37:22.496Z,70.78
2022-07-26T02:39:49.092Z,70.87
2022-07-26T02:42:17.905Z,71.00
2022-07-26T02:44:44.833Z,70.88
2022-07-26T02:47:12.713Z,70.77
2022-07-26T02:49:39.413Z,71.04
2022-07-26T02:52:06.034Z,71.02
2022-07-26T02:54:32.686Z,71.41
2022-07-26T02:57:01.732Z,71.76
2022-07-26T02:59:28.420Z,71.85
2022-07-26T03:01:55.160Z,72.16
2022-07-26T03:04:21.884Z,72.02
2022-07-26T03:06:48.441Z,72.29
2022-07-26T03:09:17.225Z,72.68
2022-07-26T03:11:43.790Z,72.97
2022-07-26T03:14:10.758Z,73.07
2022-07-26T03:16:38.916Z,73.05
2022-07-26T03:19:05.522Z,73.23
2022-07-26T03:21:32.250Z,73.44
2022-07-26T03:23:58.844Z,73.77
2022-07-26T03:26:29.297Z,73.72
2022-07-26T03:28:56.298Z,73.84
2022-07-26T03:31:23.611Z,73.90
2022-07-26T03:33:50.313Z,74.20
2022-07-26T03:36:19.238Z,74.21
2022-07-26T03:38:45.805Z,74.29
2022-07-26T03:41:13.641Z,74.55
2022-07-26T03:43:40.684Z,74.45
2022-07-26T03:46:09.466Z,74.77
2022-07-26T03:48:36.161Z,74.70
2022-07-26T03:51:05.122Z,74.70
2022-07-26T03:53:31.719Z,74.73
2022-07-26T03:56:17.650Z,74.59
2022-07-26T03:58:44.233Z,74.49
2022-07-26T04:01:13.275Z,74.32
2022-07-26T04:03:42.178Z,74.40
2022-07-26T04:06:16.595Z,74.62
2022-07-26T04:08:46.778Z,74.30
2022-07-26T04:11:13.387Z,74.13
2022-07-26T04:13:40.542Z,74.29
2022-07-26T04:16:07.391Z,74.20
2022-07-26T04:18:34.029Z,73.96
2022-07-26T04:21:00.811Z,74.11
2022-07-26T04:23:27.544Z,73.74
2022-07-26T04:25:54.236Z,73.84
2022-07-26T04:28:23.284Z,74.13
2022-07-26T04:30:52.187Z,74.32
2022-07-26T04:33:18.860Z,74.23
2022-07-26T04:35:47.642Z,74.31
2022-07-26T04:38:14.639Z,74.30
2022-07-26T04:40:43.675Z,74.19
2022-07-26T04:43:15.350Z,73.91
2022-07-26T04:45:43.620Z,73.69
2022-07-26T04:48:10.345Z,73.65
2022-07-26T04:50:39.409Z,73.39
2022-07-26T04:53:06.044Z,73.34
2022-07-26T04:55:32.777Z,72.86
2022-07-26T04:58:03.870Z,72.40
2022-07-26T05:00:30.475Z,72.02
2022-07-26T05:02:59.178Z,70.29
2022-07-26T05:05:31.036Z,64.40
2022-07-26T05:07:59.756Z,58.74
2022-07-26T05:10:32.734Z,54.78
2022-07-26T05:12:59.482Z,52.42
2022-07-26T05:15:33.008Z,50.06
2022-07-26T05:18:10.283Z,48.28
2022-07-26T05:20:39.321Z,46.44
2022-07-26T05:23:08.746Z,45.07
2022-07-26T05:25:35.559Z,43.44
2022-07-26T05:28:04.622Z,42.00
2022-07-26T05:30:33.701Z,40.98
2022-07-26T05:33:00.364Z,39.99
2022-07-26T05:35:27.080Z,39.12
2022-07-26T05:37:53.713Z,39.16
2022-07-26T05:40:20.268Z,38.97
2022-07-26T05:42:47.237Z,38.48
2022-07-26T05:45:16.412Z,40.78
2022-07-26T05:47:43.029Z,42.92
2022-07-26T05:50:10.214Z,44.89
2022-07-26T05:52:36.849Z,47.29
2022-07-26T05:55:03.775Z,49.14
2022-07-26T05:57:30.810Z,50.33
2022-07-26T05:59:57.639Z,50.05
2022-07-26T06:02:24.339Z,50.76
2022-07-26T06:04:51.017Z,51.22
2022-07-26T06:07:17.617Z,46.52
2022-07-26T06:09:44.425Z,42.51
2022-07-26T06:12:11.028Z,38.70
2022-07-26T06:14:37.615Z,36.77
2022-07-26T06:17:04.744Z,35.97
2022-07-26T06:19:31.900Z,34.56
2022-07-26T06:22:00.244Z,34.06
2022-07-26T06:24:29.868Z,33.10
2022-07-26T06:27:04.957Z,32.28
2022-07-26T06:29:34.542Z,32.72
2022-07-26T06:32:01.422Z,32.50
2022-07-26T06:34:28.625Z,32.21
2022-07-26T06:36:57.188Z,33.82
2022-07-26T06:39:25.683Z,33.78
2022-07-26T06:41:57.467Z,34.01
2022-07-26T06:44:24.654Z,39.52
2022-07-26T06:46:52.077Z,42.74
2022-07-26T06:49:23.437Z,41.97
2022-07-26T06:51:53.082Z,44.01
2022-07-26T06:54:22.615Z,46.24
2022-07-26T06:56:56.887Z,48.48
2022-07-26T06:59:25.647Z,49.51
2022-07-26T07:01:59.305Z,48.97
2022-07-26T07:04:34.326Z,46.07
2022-07-26T07:07:10.738Z,42.96
2022-07-26T07:09:40.494Z,41.99
2022-07-26T07:12:10.105Z,45.03
2022-07-26T07:14:37.500Z,47.89
2022-07-26T07:17:10.372Z,49.04
2022-07-26T07:19:41.937Z,49.14
2022-07-26T07:22:12.019Z,49.90
2022-07-26T07:24:42.613Z,50.99
2022-07-26T07:27:10.610Z,52.19
2022-07-26T07:29:37.631Z,52.56
2022-07-26T07:32:07.878Z,51.94
2022-07-26T07:34:42.692Z,49.86
2022-07-26T07:37:10.586Z,50.69
2022-07-26T07:39:41.000Z,52.41
2022-07-26T07:42:08.081Z,53.50
2022-07-26T07:44:34.730Z,54.26
2022-07-26T07:47:01.904Z,53.92
2022-07-26T07:49:28.659Z,54.78
2022-07-26T07:51:55.807Z,54.58
2022-07-26T07:54:22.443Z,54.77
2022-07-26T07:56:49.318Z,55.42
2022-07-26T07:59:18.996Z,56.62
2022-07-26T08:01:50.060Z,57.82
2022-07-26T08:04:17.007Z,57.58
2022-07-26T08:06:50.269Z,57.57
2022-07-26T08:09:18.854Z,56.66
2022-07-26T08:11:45.874Z,54.34
2022-07-26T08:14:20.123Z,54.25
2022-07-26T08:16:47.057Z,53.27
2022-07-26T08:19:14.501Z,52.86
2022-07-26T08:21:42.972Z,52.03
2022-07-26T08:24:10.861Z,52.16
2022-07-26T08:26:38.350Z,51.21
2022-07-26T08:29:05.283Z,50.49
2022-07-26T08:31:32.091Z,51.50
2022-07-26T08:33:58.814Z,51.62
2022-07-26T08:36:31.822Z,52.42
2022-07-26T08:39:01.839Z,52.90
2022-07-26T08:41:29.198Z,53.04
2022-07-26T08:44:06.508Z,54.06
2022-07-26T08:46:39.784Z,54.02
2022-07-26T08:49:08.645Z,54.56
2022-07-26T08:51:39.679Z,54.98
2022-07-26T08:54:06.997Z,54.13
2022-07-26T08:56:40.633Z,53.99
2022-07-26T08:59:21.415Z,55.05
2022-07-26T09:01:52.018Z,55.81
2022-07-26T09:04:31.834Z,55.22
2022-07-26T09:07:13.352Z,55.60
2022-07-26T09:09:58.382Z,56.65
2022-07-26T09:12:26.088Z,56.83
2022-07-26T09:14:53.779Z,52.93
2022-07-26T09:17:22.166Z,51.82
2022-07-26T09:20:09.799Z,52.43
2022-07-26T09:22:41.257Z,52.46
2022-07-26T09:25:21.622Z,51.16
2022-07-26T09:27:48.254Z,48.67
2022-07-26T09:30:16.613Z,47.25
2022-07-26T09:33:13.797Z,47.39
2022-07-26T09:35:52.275Z,48.21
2022-07-26T09:38:19.882Z,49.87
2022-07-26T09:40:50.883Z,49.81
2022-07-26T09:43:24.025Z,50.67
2022-07-26T09:46:07.363Z,50.91
2022-07-26T09:49:09.428Z,51.31
2022-07-26T09:51:42.005Z,51.47
2022-07-26T09:54:11.012Z,51.39
2022-07-26T09:56:50.315Z,51.10
2022-07-26T09:59:19.692Z,50.98
2022-07-26T10:01:53.596Z,50.73
2022-07-26T10:04:21.522Z,50.43
2022-07-26T10:06:48.716Z,49.48
2022-07-26T10:09:18.882Z,48.53
2022-07-26T10:12:02.597Z,47.20
2022-07-26T10:14:37.776Z,46.93
2022-07-26T10:17:31.470Z,47.25
2022-07-26T10:20:01.815Z,46.37
2022-07-26T10:22:33.939Z,46.89
2022-07-26T10:25:19.125Z,47.58
2022-07-26T10:27:53.689Z,47.05
2022-07-26T10:30:20.432Z,48.23
2022-07-26T10:33:07.623Z,48.82
2022-07-26T10:35:34.166Z,49.69
2022-07-26T10:38:03.981Z,52.65
2022-07-26T10:40:31.091Z,54.32
2022-07-26T10:43:39.144Z,55.75
2022-07-26T10:46:16.489Z,57.13
2022-07-26T10:49:00.285Z,58.36
2022-07-26T10:51:32.509Z,59.80
2022-07-26T10:54:10.527Z,60.59
2022-07-26T10:56:38.364Z,60.79
2022-07-26T10:59:06.462Z,60.88
2022-07-26T11:01:33.999Z,60.90
2022-07-26T11:04:00.882Z,60.47
2022-07-26T11:06:30.473Z,61.30
2022-07-26T11:08:57.141Z,61.66
2022-07-26T11:11:32.544Z,61.28
2022-07-26T11:14:10.403Z,61.13
2022-07-26T11:16:41.830Z,60.17
2022-07-26T11:19:23.281Z,60.03
2022-07-26T11:21:59.120Z,59.81
2022-07-26T11:24:26.880Z,59.21
2022-07-26T11:26:54.045Z,59.43
2022-07-26T11:29:40.516Z,59.08
2022-07-26T11:32:18.556Z,58.93
2022-07-26T11:34:46.461Z,57.83
2022-07-26T11:37:13.789Z,57.72
2022-07-26T11:39:43.119Z,57.89
2022-07-26T11:42:19.616Z,58.38
2022-07-26T11:44:53.956Z,58.23
2022-07-26T11:47:24.507Z,59.50
2022-07-26T11:50:12.381Z,59.72
2022-07-26T11:52:39.117Z,60.24
2022-07-26T11:55:06.847Z,60.59
2022-07-26T11:57:33.476Z,60.48
2022-07-26T12:00:01.227Z,61.20
2022-07-26T12:02:31.821Z,61.48
2022-07-26T12:05:21.943Z,61.64
2022-07-26T12:08:04.140Z,61.57
2022-07-26T12:10:33.218Z,62.03
2022-07-26T12:13:08.035Z,61.47
2022-07-26T12:15:47.158Z,60.78
2022-07-26T12:18:30.819Z,60.34
2022-07-26T12:21:07.699Z,59.60
2022-07-26T12:23:49.327Z,59.37
2022-07-26T12:26:28.342Z,58.27
2022-07-26T12:28:56.061Z,57.46
2022-07-26T12:31:27.415Z,58.08
2022-07-26T12:33:54.185Z,58.86
2022-07-26T12:36:27.506Z,58.94
2022-07-26T12:39:00.207Z,58.45
2022-07-26T12:41:40.250Z,58.14
2022-07-26T12:44:11.879Z,57.79
2022-07-26T12:46:39.245Z,57.23
2022-07-26T12:49:06.131Z,57.71
2022-07-26T12:51:35.621Z,58.09
2022-07-26T12:59:01.374Z,58.95
2022-07-26T13:01:29.519Z,58.00
2022-07-26T13:03:56.437Z,57.16
2022-07-26T13:06:23.091Z,57.24
2022-07-26T13:08:50.179Z,57.15
2022-07-26T13:11:16.873Z,57.19
2022-07-26T13:13:46.014Z,57.30
2022-07-26T13:16:14.796Z,57.81
2022-07-26T13:18:41.370Z,58.53
2022-07-26T13:21:08.034Z,58.99
2022-07-26T13:23:35.666Z,58.82
2022-07-26T13:26:03.595Z,58.22
2022-07-26T13:28:30.873Z,58.02
2022-07-26T13:30:57.619Z,57.93
2022-07-26T13:33:24.313Z,57.98
2022-07-26T13:35:50.864Z,57.64
2022-07-26T13:38:19.673Z,57.63
2022-07-26T13:40:46.284Z,57.74
2022-07-26T13:43:12.847Z,57.73
2022-07-26T13:45:39.437Z,57.60
2022-07-26T13:48:08.612Z,57.68
2022-07-26T13:50:38.223Z,57.39
2022-07-26T13:53:04.828Z,57.19
2022-07-26T13:55:31.446Z,56.91
2022-07-26T13:58:00.256Z,56.71
2022-07-26T14:00:29.273Z,56.47
2022-07-26T14:02:59.073Z,56.56
2022-07-26T14:05:28.745Z,56.37
2022-07-26T14:07:55.649Z,56.08
2022-07-26T14:10:25.706Z,55.96
2022-07-26T14:12:52.610Z,55.80
2022-07-26T14:15:22.543Z,55.49
2022-07-26T14:17:51.417Z,55.96
2022-07-26T14:20:18.268Z,55.64
2022-07-26T14:22:45.366Z,55.86
2022-07-26T14:25:14.944Z,55.64
2022-07-26T14:27:41.520Z,55.09
2022-07-26T14:30:08.423Z,54.95
2022-07-26T14:32:35.251Z,54.86
2022-07-26T14:35:02.014Z,54.96
2022-07-26T14:37:44.121Z,54.69
2022-07-26T14:40:13.833Z,54.48
2022-07-26T14:42:40.711Z,54.47
2022-07-26T14:45:10.374Z,54.36
2022-07-26T14:47:40.198Z,53.82
2022-07-26T14:50:08.397Z,54.16
2022-07-26T14:52:40.997Z,54.38
2022-07-26T14:55:08.871Z,54.10
2022-07-26T14:57:39.507Z,54.53
2022-07-26T15:00:09.112Z,54.17
2022-07-26T15:02:37.743Z,54.20
2022-07-26T15:05:04.623Z,53.79
2022-07-26T15:07:33.430Z,54.13
2022-07-26T15:09:59.976Z,54.27
2022-07-26T15:12:26.623Z,54.24
2022-07-26T15:14:53.219Z,53.58
2022-07-26T15:17:20.415Z,53.12
2022-07-26T15:19:47.255Z,53.10
2022-07-26T15:22:17.410Z,53.28
2022-07-26T15:24:46.428Z,53.21
2022-07-26T15:27:13.189Z,53.45
2022-07-26T15:29:40.165Z,53.50
2022-07-26T15:32:09.080Z,53.46
2022-07-26T15:34:38.060Z,53.60
2022-07-26T15:37:04.609Z,53.51
2022-07-26T15:39:31.260Z,53.26
2022-07-26T15:42:05.398Z,53.11
2022-07-26T15:44:34.299Z,53.20
2022-07-26T15:47:00.847Z,52.85
2022-07-26T15:49:27.503Z,52.88
2022-07-26T15:51:54.222Z,52.80
2022-07-26T15:54:20.860Z,52.51
2022-07-26T15:56:47.573Z,52.36
2022-07-26T15:59:14.186Z,52.34
2022-07-26T16:01:43.074Z,52.22
2022-07-26T16:04:10.113Z,52.39
2022-07-26T16:06:37.040Z,52.33
2022-07-26T16:09:17.883Z,52.77
2022-07-26T16:11:45.542Z,52.67
2022-07-26T16:14:12.598Z,52.83
2022-07-26T16:16:39.236Z,52.82
2022-07-26T16:19:05.878Z,53.35
2022-07-26T16:21:32.601Z,53.23
2022-07-26T16:24:04.449Z,52.50
2022-07-26T16:26:33.596Z,52.66
2022-07-26T16:29:00.820Z,52.66
2022-07-26T16:31:27.716Z,52.07
2022-07-26T16:33:59.149Z,52.03
2022-07-26T16:36:25.796Z,51.81
2022-07-26T16:38:52.377Z,51.10
2022-07-26T16:41:19.234Z,51.41
2022-07-26T16:43:48.175Z,51.19
2022-07-26T16:46:17.580Z,51.72
2022-07-26T16:48:44.400Z,50.95
2022-07-26T16:51:13.465Z,51.37
2022-07-26T16:53:41.373Z,51.45
2022-07-26T16:56:08.029Z,51.71
2022-07-26T16:58:35.958Z,51.48
2022-07-26T17:01:02.808Z,51.37
2022-07-26T17:03:29.534Z,51.31
2022-07-26T17:05:56.075Z,51.17
2022-07-26T17:08:22.995Z,51.24
2022-07-26T17:10:49.573Z,51.66
2022-07-26T17:13:19.381Z,51.52
2022-07-26T17:15:47.751Z,51.46
2022-07-26T17:18:14.438Z,51.59
2022-07-26T17:20:42.144Z,51.52
2022-07-26T17:23:11.268Z,51.68
2022-07-26T17:25:37.910Z,52.09
2022-07-26T17:28:04.798Z,52.25
2022-07-26T17:30:31.446Z,52.54
2022-07-26T17:32:58.031Z,52.46
2022-07-26T17:35:24.767Z,52.88
2022-07-26T17:37:55.617Z,52.61
2022-07-26T17:40:23.560Z,52.77
2022-07-26T17:42:52.684Z,52.69
2022-07-26T17:45:19.383Z,52.98
2022-07-26T17:47:46.828Z,52.68
2022-07-26T17:50:35.136Z,52.87
2022-07-26T17:53:00.087Z,52.30
2022-07-26T17:55:29.227Z,52.33
2022-07-26T17:57:55.804Z,52.60
2022-07-26T18:00:23.224Z,52.32
2022-07-26T18:02:58.257Z,52.55
2022-07-26T18:05:32.248Z,52.74
2022-07-26T18:08:00.817Z,52.89
2022-07-26T18:10:28.331Z,52.98
2022-07-26T18:12:55.562Z,52.97
2022-07-26T18:15:22.472Z,52.72
2022-07-26T18:17:49.073Z,53.20
2022-07-26T18:20:15.809Z,53.15
2022-07-26T18:22:42.355Z,53.04
2022-07-26T18:25:12.714Z,53.26
2022-07-26T18:27:39.299Z,53.18
2022-07-26T18:30:08.854Z,53.42
2022-07-26T18:32:35.613Z,53.63
2022-07-26T18:35:02.354Z,53.45
2022-07-26T18:37:28.936Z,53.67
2022-07-26T18:39:57.855Z,53.58
2022-07-26T18:42:25.092Z,53.65
2022-07-26T18:44:51.877Z,53.80
2022-07-26T18:47:20.748Z,54.20
2022-07-26T18:49:47.327Z,54.34
2022-07-26T18:52:14.046Z,54.30
2022-07-26T18:54:41.475Z,54.46
2022-07-26T18:57:08.080Z,54.53
2022-07-26T18:59:34.652Z,54.54
2022-07-26T19:02:03.640Z,54.71
2022-07-26T19:04:30.441Z,54.75
2022-07-26T19:06:59.716Z,55.11
2022-07-26T19:09:26.335Z,55.15
2022-07-26T19:11:52.938Z,55.36
2022-07-26T19:14:19.534Z,55.42
2022-07-26T19:16:46.155Z,55.53
2022-07-26T19:19:13.151Z,55.68
2022-07-26T19:21:44.869Z,55.74
2022-07-26T19:24:11.419Z,55.94
2022-07-26T19:26:38.127Z,56.04
2022-07-26T19:29:04.737Z,56.41
2022-07-26T19:31:32.052Z,56.56
2022-07-26T19:33:58.648Z,56.73
2022-07-26T19:36:28.409Z,56.71
2022-07-26T19:38:56.715Z,56.78
2022-07-26T19:41:23.425Z,56.81
2022-07-26T19:43:49.953Z,57.13
2022-07-26T19:46:16.615Z,57.24
2022-07-26T19:48:45.654Z,57.58
2022-07-26T19:51:14.797Z,57.83
2022-07-26T19:53:41.614Z,57.72
2022-07-26T19:56:08.198Z,58.07
2022-07-26T19:58:39.989Z,58.16
2022-07-26T20:01:06.621Z,58.44
2022-07-26T20:03:33.329Z,58.44
2022-07-26T20:06:01.137Z,58.60
2022-07-26T20:08:27.748Z,58.79
2022-07-26T20:10:56.698Z,58.66
2022-07-26T20:13:23.325Z,59.00
2022-07-26T20:15:50.005Z,58.79
2022-07-26T20:18:19.577Z,59.01
2022-07-26T20:20:48.529Z,59.12
2022-07-26T20:23:15.081Z,59.63
2022-07-26T20:25:41.680Z,59.40
2022-07-26T20:28:08.242Z,59.79
2022-07-26T20:30:34.887Z,59.86
2022-07-26T20:33:03.777Z,59.79
2022-07-26T20:35:31.368Z,60.13
2022-07-26T20:37:57.943Z,60.17
2022-07-26T20:40:27.350Z,60.16
2022-07-26T20:42:53.948Z,60.45
2022-07-26T20:45:25.207Z,60.50
2022-07-26T20:47:53.393Z,60.88
2022-07-26T20:50:20.681Z,60.76
2022-07-26T20:52:48.632Z,61.04
2022-07-26T20:55:17.953Z,60.98
2022-07-26T20:57:45.756Z,61.16
2022-07-26T21:00:14.289Z,61.37
2022-07-26T21:02:41.005Z,61.34
2022-07-26T21:05:08.088Z,61.61
2022-07-26T21:07:58.562Z,61.81
2022-07-26T21:10:21.718Z,61.47
2022-07-26T21:12:49.653Z,61.83
2022-07-26T21:15:16.267Z,61.87
2022-07-26T21:17:45.153Z,61.81
2022-07-26T21:20:11.773Z,62.13
2022-07-26T21:22:38.311Z,62.10
2022-07-26T21:25:05.976Z,62.22
2022-07-26T21:27:32.581Z,62.52
2022-07-26T21:29:59.631Z,62.74
2022-07-26T21:32:31.553Z,62.75
2022-07-26T21:35:01.211Z,63.08
2022-07-26T21:37:27.934Z,63.30
2022-07-26T21:39:54.513Z,63.23
2022-07-26T21:42:21.356Z,63.50
2022-07-26T21:44:55.821Z,63.72
2022-07-26T21:47:25.017Z,63.67
2022-07-26T21:49:53.692Z,63.92
2022-07-26T21:52:20.253Z,63.96
2022-07-26T21:54:47.081Z,64.23
2022-07-26T21:57:16.641Z,64.58
2022-07-26T21:59:43.272Z,64.78
2022-07-26T22:02:14.478Z,64.91
2022-07-26T22:04:46.554Z,65.04
2022-07-26T22:07:13.276Z,65.18
2022-07-26T22:09:39.972Z,65.13
2022-07-26T22:12:06.835Z,65.27
2022-07-26T22:14:33.438Z,65.68
2022-07-26T22:17:00.135Z,65.46
2022-07-26T22:19:26.894Z,65.53
2022-07-26T22:21:53.597Z,65.78
2022-07-26T22:24:22.299Z,66.01
2022-07-26T22:26:48.934Z,65.75
2022-07-26T22:29:17.575Z,65.54
2022-07-26T22:31:44.261Z,65.55
2022-07-26T22:34:10.838Z,65.54
2022-07-26T22:36:40.010Z,65.52
2022-07-26T22:39:12.114Z,65.46
2022-07-26T22:42:05.057Z,65.18
2022-07-26T22:44:27.596Z,65.18
2022-07-26T22:46:54.646Z,65.17
2022-07-26T22:49:21.692Z,65.47
2022-07-26T22:51:50.353Z,65.33
2022-07-26T22:54:19.139Z,65.51
2022-07-26T22:56:46.612Z,65.58
2022-07-26T22:59:13.719Z,65.34
2022-07-26T23:01:40.679Z,65.35
2022-07-26T23:04:07.328Z,65.25
2022-07-26T23:06:37.446Z,65.25
2022-07-26T23:09:04.941Z,65.37
2022-07-26T23:11:32.790Z,65.46
2022-07-26T23:14:01.850Z,65.56
2022-07-26T23:16:31.095Z,65.58
2022-07-26T23:18:57.724Z,65.90
2022-07-26T23:21:24.323Z,66.04
2022-07-26T23:23:50.922Z,65.96
2022-07-26T23:26:17.680Z,66.19
2022-07-26T23:28:44.257Z,66.45
2022-07-26T23:31:11.918Z,66.66
2022-07-26T23:33:51.509Z,66.68
2022-07-26T23:36:20.453Z,66.69
2022-07-26T23:38:49.485Z,66.52
2022-07-26T23:41:16.082Z,67.11
2022-07-26T23:43:42.823Z,66.99
2022-07-26T23:46:09.392Z,66.91
2022-07-26T23:48:36.010Z,67.27
2022-07-26T23:51:02.582Z,67.49
2022-07-26T23:53:29.171Z,67.47
2022-07-26T23:55:55.789Z,67.52
2022-07-26T23:58:22.335Z,67.71
